createdAt,value
2018-08-10T00:00:35.520Z,0.00
2018-08-10T00:01:35.515Z,0.00
2018-08-10T00:02:35.520Z,0.00
2018-08-10T00:03:35.526Z,0.00
2018-08-10T00:04:35.540Z,0.00
2018-08-10T00:05:35.529Z,0.00
2018-08-10T00:06:35.543Z,0.00
2018-08-10T00:07:35.547Z,0.00
2018-08-10T00:08:35.542Z,0.00
2018-08-10T00:09:35.545Z,0.00
2018-08-10T00:10:35.548Z,0.00
2018-08-10T00:11:35.560Z,0.00
2018-08-10T00:12:35.556Z,0.00
2018-08-10T00:13:35.563Z,0.00
2018-08-10T00:14:35.562Z,0.00
2018-08-10T00:15:35.566Z,0.00
2018-08-10T00:16:35.571Z,0.00
2018-08-10T00:17:35.571Z,0.00
2018-08-10T00:18:35.573Z,0.00
2018-08-10T00:19:35.580Z,0.00
2018-08-10T00:20:35.594Z,0.00
2018-08-10T00:21:35.588Z,0.00
2018-08-10T00:22:35.592Z,0.00
2018-08-10T00:23:35.593Z,0.00
2018-08-10T00:24:35.596Z,0.00
2018-08-10T00:25:35.609Z,0.00
2018-08-10T00:26:35.607Z,0.00
2018-08-10T00:27:35.606Z,0.00
2018-08-10T00:28:35.637Z,0.00
2018-08-10T00:29:35.616Z,0.00
2018-08-10T00:30:35.622Z,0.00
2018-08-10T00:31:35.622Z,0.00
2018-08-10T00:32:35.627Z,0.00
2018-08-10T00:33:35.633Z,0.00
2018-08-10T00:34:35.636Z,0.00
2018-08-10T00:35:35.636Z,0.00
2018-08-10T00:36:35.641Z,0.00
2018-08-10T00:37:35.643Z,0.00
2018-08-10T00:38:35.647Z,0.00
2018-08-10T00:39:35.654Z,0.00
2018-08-10T00:40:35.655Z,0.00
2018-08-10T00:41:35.657Z,0.00
2018-08-10T00:42:35.661Z,0.00
2018-08-10T00:43:35.658Z,0.00
2018-08-10T00:44:35.668Z,0.00
2018-08-10T00:45:35.674Z,0.00
2018-08-10T00:46:35.674Z,0.00
2018-08-10T00:47:35.677Z,0.00
2018-08-10T00:48:35.681Z,0.00
2018-08-10T00:49:35.683Z,0.00
2018-08-10T00:50:35.688Z,0.00
2018-08-10T00:51:35.688Z,0.00
2018-08-10T00:52:35.688Z,0.00
2018-08-10T00:53:35.695Z,0.00
2018-08-10T00:54:35.701Z,0.00
2018-08-10T00:55:35.701Z,0.00
2018-08-10T00:56:35.702Z,0.00
2018-08-10T00:57:35.716Z,0.00
2018-08-10T00:58:35.712Z,0.00
2018-08-10T00:59:35.716Z,0.00
2018-08-10T01:00:35.721Z,0.00
2018-08-10T01:01:35.724Z,0.00
2018-08-10T01:02:35.723Z,0.00
2018-08-10T01:03:35.728Z,0.00
2018-08-10T01:04:35.735Z,0.00
2018-08-10T01:05:35.741Z,0.00
2018-08-10T01:06:35.742Z,0.00
2018-08-10T01:07:35.748Z,0.00
2018-08-10T01:08:35.749Z,0.00
2018-08-10T01:09:35.752Z,0.00
2018-08-10T01:10:35.754Z,0.00
2018-08-10T01:11:35.757Z,0.00
2018-08-10T01:12:35.763Z,0.00
2018-08-10T01:13:35.861Z,0.00
2018-08-10T01:14:35.768Z,0.00
2018-08-10T01:15:35.775Z,0.00
2018-08-10T01:16:35.774Z,0.00
2018-08-10T01:17:35.782Z,0.00
2018-08-10T01:18:35.783Z,0.00
2018-08-10T01:19:35.787Z,0.00
2018-08-10T01:20:35.788Z,0.00
2018-08-10T01:21:35.795Z,0.00
2018-08-10T01:22:35.794Z,0.00
2018-08-10T01:23:35.804Z,0.00
2018-08-10T01:24:35.800Z,0.00
2018-08-10T01:25:35.801Z,0.00
2018-08-10T01:26:35.807Z,0.00
2018-08-10T01:27:35.816Z,0.00
2018-08-10T01:28:35.831Z,0.00
2018-08-10T01:29:35.816Z,0.00
2018-08-10T01:30:35.822Z,0.00
2018-08-10T01:31:35.824Z,0.00
2018-08-10T01:32:35.829Z,0.00
2018-08-10T01:33:35.827Z,0.00
2018-08-10T01:34:35.844Z,0.00
2018-08-10T01:35:35.840Z,0.00
2018-08-10T01:36:35.834Z,0.00
2018-08-10T01:37:35.842Z,0.00
2018-08-10T01:38:35.846Z,0.00
2018-08-10T01:39:35.849Z,0.00
2018-08-10T01:40:35.852Z,0.00
2018-08-10T01:41:35.855Z,0.00
2018-08-10T01:42:35.870Z,0.00
2018-08-10T01:43:35.860Z,0.00
2018-08-10T01:44:35.868Z,0.00
2018-08-10T01:45:35.868Z,0.00
2018-08-10T01:46:35.876Z,0.00
2018-08-10T01:47:35.875Z,0.00
2018-08-10T01:48:35.877Z,0.00
2018-08-10T01:49:35.882Z,0.00
2018-08-10T01:50:35.885Z,0.00
2018-08-10T01:51:35.892Z,0.00
2018-08-10T01:52:35.895Z,0.00
2018-08-10T01:53:35.891Z,0.00
2018-08-10T01:54:35.898Z,0.00
2018-08-10T01:55:35.903Z,0.00
2018-08-10T01:56:35.901Z,0.00
2018-08-10T01:57:35.905Z,0.00
2018-08-10T01:58:35.907Z,0.00
2018-08-10T01:59:35.915Z,0.00
2018-08-10T02:00:35.917Z,0.00
2018-08-10T02:01:35.913Z,0.00
2018-08-10T02:02:35.919Z,0.00
2018-08-10T02:03:35.923Z,0.00
2018-08-10T02:04:35.927Z,0.00
2018-08-10T02:05:35.933Z,0.00
2018-08-10T02:06:35.937Z,0.00
2018-08-10T02:07:35.938Z,0.00
2018-08-10T02:08:35.939Z,0.00
2018-08-10T02:09:35.942Z,0.00
2018-08-10T02:10:35.944Z,0.00
2018-08-10T02:11:35.947Z,0.00
2018-08-10T02:12:35.961Z,0.00
2018-08-10T02:13:35.959Z,0.00
2018-08-10T02:14:35.961Z,0.00
2018-08-10T02:15:35.965Z,0.00
2018-08-10T02:16:36.027Z,0.00
2018-08-10T02:17:35.970Z,0.00
2018-08-10T02:18:35.969Z,0.00
2018-08-10T02:19:35.975Z,0.00
2018-08-10T02:20:35.975Z,0.00
2018-08-10T02:21:35.980Z,0.00
2018-08-10T02:22:35.981Z,0.00
2018-08-10T02:23:35.982Z,0.00
2018-08-10T02:24:36.025Z,0.00
2018-08-10T02:25:35.986Z,0.00
2018-08-10T02:26:35.991Z,0.00
2018-08-10T02:27:35.999Z,0.00
2018-08-10T02:28:35.995Z,0.00
2018-08-10T02:29:35.999Z,0.00
2018-08-10T02:30:36.002Z,0.00
2018-08-10T02:31:36.006Z,0.00
2018-08-10T02:32:36.008Z,0.00
2018-08-10T02:33:36.017Z,0.00
2018-08-10T02:34:36.016Z,0.00
2018-08-10T02:35:36.018Z,0.00
2018-08-10T02:36:36.022Z,0.00
2018-08-10T02:37:36.024Z,0.00
2018-08-10T02:38:36.035Z,0.00
2018-08-10T02:39:36.032Z,0.00
2018-08-10T02:40:36.027Z,0.00
2018-08-10T02:41:36.035Z,0.00
2018-08-10T02:42:36.035Z,0.00
2018-08-10T02:43:36.043Z,0.00
2018-08-10T02:44:36.046Z,0.00
2018-08-10T02:45:36.045Z,0.00
2018-08-10T02:46:36.095Z,0.00
2018-08-10T02:47:36.052Z,0.00
2018-08-10T02:48:36.057Z,0.00
2018-08-10T02:49:36.057Z,0.00
2018-08-10T02:50:36.063Z,0.00
2018-08-10T02:51:36.066Z,0.00
2018-08-10T02:52:36.075Z,0.00
2018-08-10T02:53:36.072Z,0.00
2018-08-10T02:54:36.082Z,0.00
2018-08-10T02:55:36.075Z,0.00
2018-08-10T02:56:36.078Z,0.00
2018-08-10T02:57:36.086Z,0.00
2018-08-10T02:58:36.083Z,0.00
2018-08-10T02:59:36.090Z,0.00
2018-08-10T03:00:36.094Z,0.00
2018-08-10T03:01:36.089Z,0.00
2018-08-10T03:02:36.093Z,0.00
2018-08-10T03:03:36.094Z,0.00
2018-08-10T03:04:36.099Z,0.00
2018-08-10T03:05:36.103Z,0.00
2018-08-10T03:06:36.107Z,0.00
2018-08-10T03:07:36.113Z,0.00
2018-08-10T03:08:36.113Z,4.00
2018-08-10T03:09:36.113Z,0.00
2018-08-10T03:10:36.119Z,4.00
2018-08-10T03:11:36.122Z,4.00
2018-08-10T03:12:36.120Z,0.00
2018-08-10T03:13:36.124Z,4.00
2018-08-10T03:14:36.146Z,4.00
2018-08-10T03:15:36.130Z,4.00
2018-08-10T03:16:36.134Z,4.00
2018-08-10T03:17:36.138Z,8.00
2018-08-10T03:18:36.137Z,4.00
2018-08-10T03:19:36.143Z,8.00
2018-08-10T03:20:36.142Z,8.00
2018-08-10T03:21:36.147Z,4.00
2018-08-10T03:22:36.163Z,8.00
2018-08-10T03:23:36.165Z,8.00
2018-08-10T03:24:36.157Z,8.00
2018-08-10T03:25:36.156Z,8.00
2018-08-10T03:26:36.160Z,12.00
2018-08-10T03:27:36.177Z,12.00
2018-08-10T03:28:36.166Z,12.00
2018-08-10T03:29:36.171Z,16.00
2018-08-10T03:30:36.178Z,16.00
2018-08-10T03:31:36.180Z,24.00
2018-08-10T03:32:36.186Z,32.00
2018-08-10T03:33:36.179Z,36.00
2018-08-10T03:34:36.179Z,48.00
2018-08-10T03:35:36.186Z,60.00
2018-08-10T03:36:36.190Z,76.00
2018-08-10T03:37:36.197Z,92.00
2018-08-10T03:38:36.196Z,112.00
2018-08-10T03:39:36.198Z,128.00
2018-08-10T03:40:36.203Z,144.00
2018-08-10T03:41:36.198Z,164.00
2018-08-10T03:42:36.201Z,184.00
2018-08-10T03:43:36.208Z,200.00
2018-08-10T03:44:36.206Z,204.00
2018-08-10T03:45:36.213Z,200.00
2018-08-10T03:46:36.215Z,192.00
2018-08-10T03:47:36.219Z,180.00
2018-08-10T03:48:36.222Z,168.00
2018-08-10T03:49:36.223Z,160.00
2018-08-10T03:50:36.227Z,160.00
2018-08-10T03:51:36.232Z,172.00
2018-08-10T03:52:36.239Z,188.00
2018-08-10T03:53:36.237Z,196.00
2018-08-10T03:54:36.245Z,192.00
2018-08-10T03:55:36.254Z,192.00
2018-08-10T03:56:36.247Z,192.00
2018-08-10T03:57:36.254Z,208.00
2018-08-10T03:58:36.253Z,228.00
2018-08-10T03:59:36.257Z,240.00
2018-08-10T04:00:36.259Z,292.00
2018-08-10T04:01:36.258Z,356.00
2018-08-10T04:02:36.265Z,456.00
2018-08-10T04:03:36.265Z,504.00
2018-08-10T04:04:36.264Z,488.00
2018-08-10T04:05:36.268Z,464.00
2018-08-10T04:06:36.271Z,484.00
2018-08-10T04:07:36.274Z,512.00
2018-08-10T04:08:36.276Z,496.00
2018-08-10T04:09:36.280Z,488.00
2018-08-10T04:10:36.283Z,488.00
2018-08-10T04:11:36.284Z,500.00
2018-08-10T04:12:36.291Z,564.00
2018-08-10T04:13:36.292Z,656.00
2018-08-10T04:14:36.296Z,704.00
2018-08-10T04:15:36.296Z,640.00
2018-08-10T04:16:36.301Z,564.00
2018-08-10T04:17:36.303Z,528.00
2018-08-10T04:18:36.312Z,528.00
2018-08-10T04:19:36.308Z,592.00
2018-08-10T04:20:36.314Z,652.00
2018-08-10T04:21:36.316Z,616.00
2018-08-10T04:22:36.322Z,580.00
2018-08-10T04:23:36.324Z,532.00
2018-08-10T04:24:36.322Z,480.00
2018-08-10T04:25:36.331Z,464.00
2018-08-10T04:26:36.328Z,488.00
2018-08-10T04:27:36.330Z,524.00
2018-08-10T04:28:36.337Z,540.00
2018-08-10T04:29:36.417Z,568.00
2018-08-10T04:30:36.345Z,588.00
2018-08-10T04:31:36.341Z,600.00
2018-08-10T04:32:36.340Z,608.00
2018-08-10T04:33:36.382Z,604.00
2018-08-10T04:34:36.348Z,584.00
2018-08-10T04:35:36.387Z,592.00
2018-08-10T04:36:36.360Z,592.00
2018-08-10T04:37:36.361Z,584.00
2018-08-10T04:38:36.407Z,564.00
2018-08-10T04:39:36.366Z,604.00
2018-08-10T04:40:36.368Z,644.00
2018-08-10T04:41:36.368Z,652.00
2018-08-10T04:42:36.375Z,700.00
2018-08-10T04:43:36.379Z,792.00
2018-08-10T04:44:36.377Z,912.00
2018-08-10T04:45:36.381Z,1052.00
2018-08-10T04:46:36.384Z,1060.00
2018-08-10T04:47:36.387Z,980.00
2018-08-10T04:48:36.390Z,932.00
2018-08-10T04:49:36.397Z,916.00
2018-08-10T04:50:36.395Z,932.00
2018-08-10T04:51:36.400Z,880.00
2018-08-10T04:52:36.400Z,864.00
2018-08-10T04:53:36.403Z,912.00
2018-08-10T04:54:36.406Z,916.00
2018-08-10T04:55:36.410Z,916.00
2018-08-10T04:56:36.409Z,880.00
2018-08-10T04:57:36.413Z,908.00
2018-08-10T04:58:36.417Z,932.00
2018-08-10T04:59:36.422Z,1000.00
2018-08-10T05:00:36.425Z,1060.00
2018-08-10T05:01:36.426Z,1128.00
2018-08-10T05:02:36.429Z,1184.00
2018-08-10T05:03:36.483Z,1172.00
2018-08-10T05:04:36.435Z,1156.00
2018-08-10T05:05:36.439Z,1136.00
2018-08-10T05:06:36.449Z,1104.00
2018-08-10T05:07:36.449Z,1112.00
2018-08-10T05:08:36.445Z,1176.00
2018-08-10T05:09:36.455Z,1336.00
2018-08-10T05:10:36.459Z,1564.00
2018-08-10T05:11:36.457Z,1904.00
2018-08-10T05:12:36.459Z,2132.00
2018-08-10T05:13:36.461Z,2432.00
2018-08-10T05:14:36.461Z,2652.00
2018-08-10T05:15:36.517Z,2824.00
2018-08-10T05:16:36.464Z,2796.00
2018-08-10T05:17:36.472Z,2792.00
2018-08-10T05:18:36.479Z,2768.00
2018-08-10T05:19:36.474Z,2560.00
2018-08-10T05:20:36.478Z,2280.00
2018-08-10T05:21:36.484Z,2284.00
2018-08-10T05:22:36.489Z,2252.00
2018-08-10T05:23:36.486Z,2352.00
2018-08-10T05:24:36.506Z,2424.00
2018-08-10T05:25:36.532Z,2620.00
2018-08-10T05:26:36.501Z,2940.00
2018-08-10T05:27:36.497Z,3188.00
2018-08-10T05:28:36.499Z,3300.00
2018-08-10T05:29:36.500Z,3424.00
2018-08-10T05:30:36.505Z,3604.00
2018-08-10T05:31:36.509Z,3560.00
2018-08-10T05:32:36.511Z,3452.00
2018-08-10T05:33:36.520Z,3536.00
2018-08-10T05:34:36.515Z,3708.00
2018-08-10T05:35:36.521Z,3692.00
2018-08-10T05:36:36.530Z,3564.00
2018-08-10T05:37:36.522Z,3452.00
2018-08-10T05:38:36.528Z,3384.00
2018-08-10T05:39:36.532Z,3504.00
2018-08-10T05:40:36.530Z,3836.00
2018-08-10T05:41:36.535Z,4120.00
2018-08-10T05:42:36.538Z,4564.00
2018-08-10T05:43:36.545Z,4760.00
2018-08-10T05:44:36.541Z,4276.00
2018-08-10T05:45:36.549Z,3720.00
2018-08-10T05:46:36.548Z,3728.00
2018-08-10T05:47:36.551Z,4156.00
2018-08-10T05:48:36.553Z,4572.00
2018-08-10T05:49:36.552Z,4640.00
2018-08-10T05:50:36.554Z,4280.00
2018-08-10T05:51:36.562Z,4108.00
2018-08-10T05:52:36.570Z,4232.00
2018-08-10T05:53:36.570Z,4712.00
2018-08-10T05:54:36.571Z,5304.00
2018-08-10T05:55:36.572Z,5664.00
2018-08-10T05:56:36.575Z,5888.00
2018-08-10T05:57:36.637Z,5812.00
2018-08-10T05:58:36.581Z,5556.00
2018-08-10T05:59:36.595Z,5308.00
2018-08-10T06:00:36.628Z,5032.00
2018-08-10T06:01:36.589Z,4072.00
2018-08-10T06:02:36.588Z,3464.00
2018-08-10T06:03:36.687Z,3400.00
2018-08-10T06:04:36.597Z,3324.00
2018-08-10T06:05:36.606Z,3148.00
2018-08-10T06:06:36.604Z,3072.00
2018-08-10T06:07:36.599Z,3252.00
2018-08-10T06:08:36.607Z,3392.00
2018-08-10T06:09:36.609Z,3444.00
2018-08-10T06:10:36.609Z,3536.00
2018-08-10T06:11:36.619Z,3932.00
2018-08-10T06:12:36.642Z,4720.00
2018-08-10T06:13:36.619Z,5444.00
2018-08-10T06:14:36.625Z,5176.00
2018-08-10T06:15:36.683Z,4224.00
2018-08-10T06:16:36.626Z,3628.00
2018-08-10T06:17:36.629Z,3152.00
2018-08-10T06:18:36.634Z,2804.00
2018-08-10T06:19:36.757Z,2620.00
2018-08-10T06:20:36.638Z,2572.00
2018-08-10T06:21:36.665Z,2556.00
2018-08-10T06:22:36.644Z,2488.00
2018-08-10T06:23:36.648Z,2372.00
2018-08-10T06:24:36.658Z,2408.00
2018-08-10T06:25:36.653Z,2576.00
2018-08-10T06:26:36.658Z,2704.00
2018-08-10T06:27:36.660Z,2736.00
2018-08-10T06:28:36.659Z,2872.00
2018-08-10T06:29:36.663Z,3144.00
2018-08-10T06:30:36.669Z,3564.00
2018-08-10T06:31:36.668Z,3692.00
2018-08-10T06:32:36.677Z,3608.00
2018-08-10T06:33:36.678Z,3592.00
2018-08-10T06:34:36.682Z,3604.00
2018-08-10T06:35:36.680Z,3656.00
2018-08-10T06:36:36.682Z,3560.00
2018-08-10T06:37:36.680Z,3440.00
2018-08-10T06:38:36.686Z,3372.00
2018-08-10T06:39:36.688Z,3200.00
2018-08-10T06:40:36.689Z,2980.00
2018-08-10T06:41:36.693Z,2844.00
2018-08-10T06:42:36.702Z,2720.00
2018-08-10T06:43:36.697Z,2664.00
2018-08-10T06:44:36.701Z,2656.00
2018-08-10T06:45:36.704Z,2716.00
2018-08-10T06:46:36.707Z,2816.00
2018-08-10T06:47:36.709Z,2892.00
2018-08-10T06:48:36.713Z,2952.00
2018-08-10T06:49:36.714Z,3004.00
2018-08-10T06:50:36.717Z,3068.00
2018-08-10T06:51:36.722Z,3084.00
2018-08-10T06:52:36.727Z,3136.00
2018-08-10T06:53:36.728Z,3160.00
2018-08-10T06:54:36.725Z,3116.00
2018-08-10T06:55:36.752Z,3044.00
2018-08-10T06:56:36.730Z,3008.00
2018-08-10T06:57:36.733Z,3048.00
2018-08-10T06:58:36.737Z,3252.00
2018-08-10T06:59:36.739Z,3600.00
2018-08-10T07:00:36.848Z,3792.00
2018-08-10T07:01:37.550Z,3708.00
2018-08-10T07:02:36.743Z,3524.00
2018-08-10T07:03:36.748Z,3380.00
2018-08-10T07:04:36.746Z,3324.00
2018-08-10T07:05:36.751Z,3188.00
2018-08-10T07:06:36.756Z,3076.00
2018-08-10T07:07:36.814Z,2944.00
2018-08-10T07:08:36.758Z,2940.00
2018-08-10T07:09:36.759Z,3072.00
2018-08-10T07:10:36.764Z,3176.00
2018-08-10T07:11:36.771Z,3188.00
2018-08-10T07:12:36.766Z,3324.00
2018-08-10T07:13:36.790Z,3376.00
2018-08-10T07:14:36.779Z,3312.00
2018-08-10T07:15:36.775Z,3156.00
2018-08-10T07:16:36.779Z,2952.00
2018-08-10T07:17:36.780Z,2788.00
2018-08-10T07:18:37.734Z,2608.00
2018-08-10T07:19:36.871Z,2524.00
2018-08-10T07:20:37.057Z,2796.00
2018-08-10T07:21:37.274Z,3072.00
2018-08-10T07:23:37.079Z,3420.00
2018-08-10T07:24:36.799Z,3548.00
2018-08-10T07:25:36.833Z,3988.00
2018-08-10T07:26:36.806Z,4208.00
2018-08-10T07:27:36.816Z,4644.00
2018-08-10T07:28:36.807Z,4964.00
2018-08-10T07:29:36.866Z,4952.00
2018-08-10T07:30:37.239Z,5092.00
2018-08-10T07:31:36.963Z,4888.00
2018-08-10T07:32:36.934Z,4928.00
2018-08-10T07:33:36.818Z,5452.00
2018-08-10T07:34:37.389Z,4936.00
2018-08-10T07:35:37.195Z,4516.00
2018-08-10T07:36:37.234Z,4948.00
2018-08-10T07:37:37.360Z,5336.00
2018-08-10T07:38:36.938Z,5320.00
2018-08-10T07:39:36.845Z,4780.00
2018-08-10T07:40:36.875Z,3864.00
2018-08-10T07:41:36.864Z,4288.00
2018-08-10T07:42:36.877Z,4472.00
2018-08-10T07:43:36.893Z,4504.00
2018-08-10T07:44:37.043Z,4840.00
2018-08-10T07:45:36.890Z,5276.00
2018-08-10T07:46:36.966Z,5500.00
2018-08-10T07:47:36.890Z,5484.00
2018-08-10T07:48:36.926Z,5224.00
2018-08-10T07:49:36.874Z,4896.00
2018-08-10T07:50:36.869Z,4576.00
2018-08-10T07:51:36.867Z,4264.00
2018-08-10T07:52:36.869Z,3756.00
2018-08-10T07:53:36.869Z,3740.00
2018-08-10T07:54:36.874Z,3692.00
2018-08-10T07:55:36.875Z,3748.00
2018-08-10T07:56:36.877Z,3748.00
2018-08-10T07:57:36.877Z,4004.00
2018-08-10T07:58:36.883Z,4236.00
2018-08-10T07:59:36.886Z,4148.00
2018-08-10T08:00:36.886Z,5164.00
2018-08-10T08:01:36.906Z,5560.00
2018-08-10T08:02:37.183Z,6252.00
2018-08-10T08:03:36.927Z,6824.00
2018-08-10T08:04:37.043Z,8512.00
2018-08-10T08:05:37.054Z,9624.00
2018-08-10T08:06:36.913Z,10412.00
2018-08-10T08:07:36.918Z,10848.00
2018-08-10T08:08:36.907Z,11780.00
2018-08-10T08:10:37.397Z,9276.00
2018-08-10T08:11:36.956Z,9316.00
2018-08-10T08:12:36.958Z,10744.00
2018-08-10T08:13:36.965Z,11728.00
2018-08-10T08:14:36.949Z,12040.00
2018-08-10T08:15:36.979Z,11344.00
2018-08-10T08:16:36.924Z,10892.00
2018-08-10T08:17:36.938Z,12348.00
2018-08-10T08:18:36.938Z,9740.00
2018-08-10T08:19:37.016Z,8500.00
2018-08-10T08:20:36.946Z,8012.00
2018-08-10T08:21:36.969Z,8344.00
2018-08-10T08:22:36.997Z,8936.00
2018-08-10T08:23:36.959Z,9144.00
2018-08-10T08:24:36.973Z,9824.00
2018-08-10T08:25:36.985Z,9696.00
2018-08-10T08:26:36.956Z,12268.00
2018-08-10T08:27:37.036Z,17344.00
2018-08-10T08:28:36.975Z,26464.00
2018-08-10T08:29:37.054Z,31040.00
2018-08-10T08:30:36.971Z,34400.00
2018-08-10T08:31:36.973Z,45856.00
2018-08-10T08:32:36.998Z,49952.00
2018-08-10T08:33:36.992Z,44896.00
2018-08-10T08:34:37.104Z,44640.00
2018-08-10T08:35:37.101Z,46880.00
2018-08-10T08:36:37.123Z,34816.00
2018-08-10T08:37:37.003Z,26528.00
2018-08-10T08:38:37.009Z,20576.00
2018-08-10T08:39:37.000Z,15504.00
2018-08-10T08:40:37.011Z,17888.00
2018-08-10T08:41:37.074Z,19424.00
2018-08-10T08:42:37.022Z,12684.00
2018-08-10T08:43:37.025Z,16896.00
2018-08-10T08:44:37.028Z,24448.00
2018-08-10T08:45:37.054Z,21760.00
2018-08-10T08:46:37.304Z,24480.00
2018-08-10T08:47:37.035Z,19520.00
2018-08-10T08:48:37.037Z,20768.00
2018-08-10T08:49:37.044Z,14176.00
2018-08-10T08:50:37.199Z,14748.00
2018-08-10T08:51:37.098Z,19328.00
2018-08-10T08:52:37.066Z,19808.00
2018-08-10T08:53:37.113Z,17408.00
2018-08-10T08:54:37.068Z,14632.00
2018-08-10T08:55:37.070Z,10820.00
2018-08-10T08:56:37.073Z,14500.00
2018-08-10T08:57:37.085Z,11480.00
2018-08-10T08:58:37.088Z,10484.00
2018-08-10T08:59:37.103Z,10820.00
2018-08-10T09:00:37.092Z,8828.00
2018-08-10T09:01:37.151Z,9008.00
2018-08-10T09:02:37.116Z,10468.00
2018-08-10T09:03:37.117Z,12676.00
2018-08-10T09:04:37.206Z,12744.00
2018-08-10T09:05:37.219Z,11900.00
2018-08-10T09:06:37.120Z,10948.00
2018-08-10T09:07:37.143Z,7752.00
2018-08-10T09:08:37.186Z,8524.00
2018-08-10T09:09:38.111Z,8848.00
2018-08-10T09:10:37.194Z,8748.00
2018-08-10T09:11:37.190Z,12160.00
2018-08-10T09:12:37.189Z,11836.00
2018-08-10T09:13:37.154Z,9644.00
2018-08-10T09:14:37.242Z,10344.00
2018-08-10T09:15:37.323Z,8228.00
2018-08-10T09:16:37.225Z,8096.00
2018-08-10T09:17:37.308Z,10392.00
2018-08-10T09:18:37.186Z,10516.00
2018-08-10T09:19:37.216Z,10688.00
2018-08-10T09:20:37.189Z,10708.00
2018-08-10T09:21:37.188Z,8824.00
2018-08-10T09:22:37.202Z,6364.00
2018-08-10T09:23:37.393Z,6592.00
2018-08-10T09:24:37.233Z,6980.00
2018-08-10T09:25:37.204Z,7264.00
2018-08-10T09:26:37.223Z,7976.00
2018-08-10T09:27:37.214Z,7136.00
2018-08-10T09:28:37.235Z,6156.00
2018-08-10T09:29:37.232Z,6596.00
2018-08-10T09:30:37.268Z,6124.00
2018-08-10T09:31:37.241Z,6060.00
2018-08-10T09:32:37.235Z,5940.00
2018-08-10T09:33:37.265Z,5788.00
2018-08-10T09:34:37.366Z,5752.00
2018-08-10T09:35:37.447Z,5680.00
2018-08-10T09:36:37.249Z,6480.00
2018-08-10T09:37:37.251Z,8584.00
2018-08-10T09:38:37.282Z,11896.00
2018-08-10T09:39:37.306Z,10324.00
2018-08-10T09:40:37.259Z,9848.00
2018-08-10T09:41:37.400Z,12588.00
2018-08-10T09:42:37.267Z,12604.00
2018-08-10T09:43:37.271Z,11140.00
2018-08-10T09:44:37.273Z,9904.00
2018-08-10T09:45:37.281Z,9504.00
2018-08-10T09:46:37.280Z,9656.00
2018-08-10T09:47:37.285Z,9624.00
2018-08-10T09:48:37.290Z,9792.00
2018-08-10T09:49:37.290Z,10040.00
2018-08-10T09:50:37.294Z,11028.00
2018-08-10T09:51:37.301Z,11564.00
2018-08-10T09:52:37.299Z,11640.00
2018-08-10T09:53:37.306Z,11684.00
2018-08-10T09:54:37.309Z,11416.00
2018-08-10T09:55:37.316Z,10524.00
2018-08-10T09:56:37.317Z,8552.00
2018-08-10T09:57:37.320Z,9524.00
2018-08-10T09:58:37.324Z,11632.00
2018-08-10T09:59:37.326Z,11128.00
2018-08-10T10:00:37.327Z,9268.00
2018-08-10T10:01:37.333Z,9016.00
2018-08-10T10:02:37.335Z,9644.00
2018-08-10T10:03:37.340Z,9060.00
2018-08-10T10:04:37.348Z,9080.00
2018-08-10T10:05:37.349Z,8692.00
2018-08-10T10:06:37.406Z,8592.00
2018-08-10T10:07:37.356Z,8504.00
2018-08-10T10:08:37.361Z,8560.00
2018-08-10T10:09:37.363Z,8092.00
2018-08-10T10:10:37.367Z,7728.00
2018-08-10T10:11:37.369Z,6964.00
2018-08-10T10:12:37.373Z,7776.00
2018-08-10T10:13:37.378Z,7936.00
2018-08-10T10:14:37.380Z,7792.00
2018-08-10T10:15:37.386Z,8104.00
2018-08-10T10:16:37.386Z,9040.00
2018-08-10T10:17:37.390Z,9812.00
2018-08-10T10:18:37.396Z,9788.00
2018-08-10T10:19:37.398Z,10232.00
2018-08-10T10:20:37.401Z,10148.00
2018-08-10T10:21:37.405Z,11060.00
2018-08-10T10:22:37.413Z,12208.00
2018-08-10T10:23:37.411Z,11812.00
2018-08-10T10:24:37.414Z,11712.00
2018-08-10T10:25:37.417Z,10892.00
2018-08-10T10:26:37.422Z,11512.00
2018-08-10T10:27:37.426Z,11072.00
2018-08-10T10:28:37.429Z,11496.00
2018-08-10T10:29:37.431Z,12024.00
2018-08-10T10:30:37.435Z,10844.00
2018-08-10T10:31:37.441Z,9972.00
2018-08-10T10:32:37.634Z,9516.00
2018-08-10T10:33:37.449Z,8924.00
2018-08-10T10:34:37.451Z,8096.00
2018-08-10T10:35:38.017Z,9120.00
2018-08-10T10:36:37.460Z,9756.00
2018-08-10T10:37:38.776Z,9232.00
2018-08-10T10:38:37.464Z,9228.00
2018-08-10T10:39:37.915Z,9468.00
2018-08-10T10:40:37.560Z,10676.00
2018-08-10T10:41:37.495Z,12208.00
2018-08-10T10:42:37.563Z,13020.00
2018-08-10T10:43:37.646Z,11408.00
2018-08-10T10:44:37.492Z,8776.00
2018-08-10T10:45:37.661Z,8016.00
2018-08-10T10:46:37.497Z,7452.00
2018-08-10T10:47:37.501Z,6432.00
2018-08-10T10:48:37.578Z,6128.00
2018-08-10T10:49:37.575Z,6620.00
2018-08-10T10:50:37.531Z,7556.00
2018-08-10T10:51:37.601Z,9208.00
2018-08-10T10:52:37.517Z,9916.00
2018-08-10T10:53:37.567Z,10076.00
2018-08-10T10:54:37.540Z,9760.00
2018-08-10T10:55:37.664Z,9796.00
2018-08-10T10:56:38.592Z,9692.00
2018-08-10T10:57:37.536Z,9972.00
2018-08-10T10:58:37.738Z,9628.00
2018-08-10T10:59:37.545Z,9432.00
2018-08-10T11:00:37.549Z,10280.00
2018-08-10T11:01:37.650Z,8820.00
2018-08-10T11:02:37.560Z,7568.00
2018-08-10T11:03:37.581Z,6832.00
2018-08-10T11:04:37.634Z,6556.00
2018-08-10T11:05:37.566Z,7668.00
2018-08-10T11:06:37.608Z,8612.00
2018-08-10T11:07:37.733Z,9660.00
2018-08-10T11:08:37.579Z,10296.00
2018-08-10T11:09:37.607Z,10328.00
2018-08-10T11:10:37.604Z,9544.00
2018-08-10T11:11:37.674Z,9992.00
2018-08-10T11:12:37.591Z,10312.00
2018-08-10T11:13:37.606Z,10100.00
2018-08-10T11:14:37.708Z,9528.00
2018-08-10T11:15:37.725Z,8668.00
2018-08-10T11:16:37.717Z,8876.00
2018-08-10T11:17:37.892Z,8964.00
2018-08-10T11:18:37.699Z,8872.00
2018-08-10T11:19:37.671Z,8664.00
2018-08-10T11:20:37.626Z,8244.00
2018-08-10T11:21:37.667Z,7524.00
2018-08-10T11:22:37.652Z,7428.00
2018-08-10T11:23:37.663Z,7164.00
2018-08-10T11:24:37.716Z,6520.00
2018-08-10T11:25:37.757Z,6796.00
2018-08-10T11:26:37.835Z,6364.00
2018-08-10T11:27:37.728Z,6244.00
2018-08-10T11:28:37.661Z,7136.00
2018-08-10T11:29:37.663Z,6888.00
2018-08-10T11:30:37.677Z,5632.00
2018-08-10T11:31:37.676Z,5572.00
2018-08-10T11:32:37.677Z,5316.00
2018-08-10T11:33:37.692Z,4876.00
2018-08-10T11:34:37.689Z,5272.00
2018-08-10T11:35:37.714Z,5160.00
2018-08-10T11:36:37.691Z,4728.00
2018-08-10T11:37:37.701Z,4660.00
2018-08-10T11:38:37.711Z,4644.00
2018-08-10T11:39:37.706Z,4444.00
2018-08-10T11:40:37.718Z,4256.00
2018-08-10T11:41:37.758Z,4616.00
2018-08-10T11:42:37.716Z,4428.00
2018-08-10T11:43:37.762Z,4640.00
2018-08-10T11:44:37.863Z,4944.00
2018-08-10T11:45:37.739Z,4496.00
2018-08-10T11:46:37.787Z,5352.00
2018-08-10T11:47:37.795Z,6000.00
2018-08-10T11:48:37.780Z,6856.00
2018-08-10T11:49:37.878Z,6564.00
2018-08-10T11:50:37.920Z,4852.00
2018-08-10T11:51:37.752Z,5396.00
2018-08-10T11:52:37.895Z,6000.00
2018-08-10T11:53:37.861Z,6532.00
2018-08-10T11:54:37.946Z,6872.00
2018-08-10T11:55:37.789Z,6640.00
2018-08-10T11:56:37.771Z,5648.00
2018-08-10T11:57:37.799Z,5248.00
2018-08-10T11:58:37.920Z,4968.00
2018-08-10T11:59:37.787Z,4780.00
2018-08-10T12:00:37.786Z,4584.00
2018-08-10T12:01:37.855Z,4428.00
2018-08-10T12:02:37.822Z,4256.00
2018-08-10T12:03:37.804Z,4404.00
2018-08-10T12:04:37.903Z,4708.00
2018-08-10T12:05:37.802Z,5128.00
2018-08-10T12:06:37.811Z,5284.00
2018-08-10T12:07:37.815Z,5368.00
2018-08-10T12:08:37.816Z,5436.00
2018-08-10T12:09:37.838Z,5132.00
2018-08-10T12:10:37.827Z,5384.00
2018-08-10T12:11:37.829Z,6092.00
2018-08-10T12:12:37.960Z,5572.00
2018-08-10T12:13:37.836Z,5312.00
2018-08-10T12:14:37.842Z,5208.00
2018-08-10T12:15:37.921Z,4684.00
2018-08-10T12:16:37.847Z,4928.00
2018-08-10T12:17:37.856Z,5164.00
2018-08-10T12:18:37.856Z,5396.00
2018-08-10T12:19:37.858Z,5036.00
2018-08-10T12:20:37.895Z,4768.00
2018-08-10T12:21:37.890Z,4600.00
2018-08-10T12:22:37.899Z,5080.00
2018-08-10T12:23:37.876Z,6364.00
2018-08-10T12:24:37.997Z,6864.00
2018-08-10T12:25:37.917Z,6528.00
2018-08-10T12:26:38.017Z,6036.00